sensor_id;sensor_type;location;lat;lon;timestamp;temperature;humidity
22923;DHT22;11627;51.322;22.816;2022-11-04T00:01:49;5.90;8.40
22923;DHT22;11627;51.322;22.816;2022-11-04T00:04:17;5.90;9.90
22923;DHT22;11627;51.322;22.816;2022-11-04T00:06:45;5.90;9.70
22923;DHT22;11627;51.322;22.816;2022-11-04T00:09:16;5.80;9.60
22923;DHT22;11627;51.322;22.816;2022-11-04T00:11:43;5.90;10.70
22923;DHT22;11627;51.322;22.816;2022-11-04T00:14:29;5.90;11.80
22923;DHT22;11627;51.322;22.816;2022-11-04T00:16:57;6.00;10.00
22923;DHT22;11627;51.322;22.816;2022-11-04T00:19:41;5.90;9.60
22923;DHT22;11627;51.322;22.816;2022-11-04T00:22:27;6.00;10.80
22923;DHT22;11627;51.322;22.816;2022-11-04T00:25:12;5.90;8.80
22923;DHT22;11627;51.322;22.816;2022-11-04T00:28:24;5.90;9.20
22923;DHT22;11627;51.322;22.816;2022-11-04T00:31:21;5.90;5.10
22923;DHT22;11627;51.322;22.816;2022-11-04T00:34:06;5.80;3.80
22923;DHT22;11627;51.322;22.816;2022-11-04T00:36:33;5.80;5.20
22923;DHT22;11627;51.322;22.816;2022-11-04T00:39:00;5.70;8.60
22923;DHT22;11627;51.322;22.816;2022-11-04T00:41:26;5.70;11.70
22923;DHT22;11627;51.322;22.816;2022-11-04T00:43:58;5.70;14.40
22923;DHT22;11627;51.322;22.816;2022-11-04T00:46:27;5.70;11.10
22923;DHT22;11627;51.322;22.816;2022-11-04T00:48:55;5.70;9.50
22923;DHT22;11627;51.322;22.816;2022-11-04T00:51:22;5.80;9.30
22923;DHT22;11627;51.322;22.816;2022-11-04T00:53:49;5.70;12.30
22923;DHT22;11627;51.322;22.816;2022-11-04T00:56:16;5.80;10.10
22923;DHT22;11627;51.322;22.816;2022-11-04T00:58:42;5.70;10.30
22923;DHT22;11627;51.322;22.816;2022-11-04T01:01:11;5.70;10.50
22923;DHT22;11627;51.322;22.816;2022-11-04T01:03:38;5.70;8.80
22923;DHT22;11627;51.322;22.816;2022-11-04T01:06:05;5.70;10.50
22923;DHT22;11627;51.322;22.816;2022-11-04T01:08:33;5.70;8.30
22923;DHT22;11627;51.322;22.816;2022-11-04T01:11:07;5.70;11.30
22923;DHT22;11627;51.322;22.816;2022-11-04T01:13:35;5.70;13.30
22923;DHT22;11627;51.322;22.816;2022-11-04T01:16:04;5.70;15.00
22923;DHT22;11627;51.322;22.816;2022-11-04T01:18:32;5.80;15.30
22923;DHT22;11627;51.322;22.816;2022-11-04T01:21:02;5.80;15.70
22923;DHT22;11627;51.322;22.816;2022-11-04T01:23:29;5.90;16.50
22923;DHT22;11627;51.322;22.816;2022-11-04T01:25:56;5.90;18.00
22923;DHT22;11627;51.322;22.816;2022-11-04T01:28:22;5.90;18.80
22923;DHT22;11627;51.322;22.816;2022-11-04T01:30:47;5.90;21.50
22923;DHT22;11627;51.322;22.816;2022-11-04T01:33:14;6.00;19.00
22923;DHT22;11627;51.322;22.816;2022-11-04T01:35:39;6.00;18.20
22923;DHT22;11627;51.322;22.816;2022-11-04T01:38:06;6.10;13.90
22923;DHT22;11627;51.322;22.816;2022-11-04T01:40:36;6.10;14.70
22923;DHT22;11627;51.322;22.816;2022-11-04T01:43:05;6.10;15.00
22923;DHT22;11627;51.322;22.816;2022-11-04T01:45:31;6.10;12.90
22923;DHT22;11627;51.322;22.816;2022-11-04T01:48:21;6.10;9.70
22923;DHT22;11627;51.322;22.816;2022-11-04T01:50:49;6.10;10.60
22923;DHT22;11627;51.322;22.816;2022-11-04T01:53:23;6.00;8.20
22923;DHT22;11627;51.322;22.816;2022-11-04T01:55:54;6.00;6.00
22923;DHT22;11627;51.322;22.816;2022-11-04T01:58:25;6.00;4.80
22923;DHT22;11627;51.322;22.816;2022-11-04T02:00:53;5.90;7.60
22923;DHT22;11627;51.322;22.816;2022-11-04T02:03:25;5.90;10.70
22923;DHT22;11627;51.322;22.816;2022-11-04T02:05:53;5.80;8.80
22923;DHT22;11627;51.322;22.816;2022-11-04T02:08:19;5.80;8.70
22923;DHT22;11627;51.322;22.816;2022-11-04T02:11:00;5.70;11.70
22923;DHT22;11627;51.322;22.816;2022-11-04T02:13:29;5.70;10.60
22923;DHT22;11627;51.322;22.816;2022-11-04T02:30:08;5.70;12.80
22923;DHT22;11627;51.322;22.816;2022-11-04T02:35:35;5.70;15.40
22923;DHT22;11627;51.322;22.816;2022-11-04T02:38:26;5.80;14.50
22923;DHT22;11627;51.322;22.816;2022-11-04T02:46:01;5.80;11.00
22923;DHT22;11627;51.322;22.816;2022-11-04T02:48:37;5.80;14.00
22923;DHT22;11627;51.322;22.816;2022-11-04T02:51:24;5.70;16.20
22923;DHT22;11627;51.322;22.816;2022-11-04T02:54:04;5.70;14.40
22923;DHT22;11627;51.322;22.816;2022-11-04T02:56:45;5.70;14.00
22923;DHT22;11627;51.322;22.816;2022-11-04T02:59:38;5.70;16.60
22923;DHT22;11627;51.322;22.816;2022-11-04T03:02:09;5.80;16.50
22923;DHT22;11627;51.322;22.816;2022-11-04T03:04:42;5.80;19.00
22923;DHT22;11627;51.322;22.816;2022-11-04T03:07:14;5.80;17.60
22923;DHT22;11627;51.322;22.816;2022-11-04T03:09:48;5.80;19.80
22923;DHT22;11627;51.322;22.816;2022-11-04T03:12:19;5.80;21.50
22923;DHT22;11627;51.322;22.816;2022-11-04T03:14:53;5.90;22.60
22923;DHT22;11627;51.322;22.816;2022-11-04T03:17:49;5.90;18.10
22923;DHT22;11627;51.322;22.816;2022-11-04T03:20:17;5.90;17.20
22923;DHT22;11627;51.322;22.816;2022-11-04T03:22:46;5.90;14.90
22923;DHT22;11627;51.322;22.816;2022-11-04T03:25:11;5.80;12.60
22923;DHT22;11627;51.322;22.816;2022-11-04T03:28:11;5.70;15.10
22923;DHT22;11627;51.322;22.816;2022-11-04T03:30:42;5.70;18.70
22923;DHT22;11627;51.322;22.816;2022-11-04T03:33:32;5.80;21.00
22923;DHT22;11627;51.322;22.816;2022-11-04T03:35:59;5.80;21.40
22923;DHT22;11627;51.322;22.816;2022-11-04T03:38:24;5.80;22.00
22923;DHT22;11627;51.322;22.816;2022-11-04T03:40:50;5.80;21.20
22923;DHT22;11627;51.322;22.816;2022-11-04T03:43:25;5.80;19.90
22923;DHT22;11627;51.322;22.816;2022-11-04T03:45:54;5.80;19.00
22923;DHT22;11627;51.322;22.816;2022-11-04T03:48:22;5.80;18.60
22923;DHT22;11627;51.322;22.816;2022-11-04T03:50:48;5.80;15.00
22923;DHT22;11627;51.322;22.816;2022-11-04T03:53:22;5.80;16.30
22923;DHT22;11627;51.322;22.816;2022-11-04T04:02:11;5.70;14.10
22923;DHT22;11627;51.322;22.816;2022-11-04T04:04:56;5.70;17.40
22923;DHT22;11627;51.322;22.816;2022-11-04T04:07:34;5.70;19.50
22923;DHT22;11627;51.322;22.816;2022-11-04T04:10:12;5.70;23.60
22923;DHT22;11627;51.322;22.816;2022-11-04T04:13:01;5.80;25.00
22923;DHT22;11627;51.322;22.816;2022-11-04T04:15:33;5.80;24.10
22923;DHT22;11627;51.322;22.816;2022-11-04T04:18:06;5.90;21.80
22923;DHT22;11627;51.322;22.816;2022-11-04T04:20:35;5.90;23.10
22923;DHT22;11627;51.322;22.816;2022-11-04T04:23:07;5.90;24.90
22923;DHT22;11627;51.322;22.816;2022-11-04T04:25:58;5.90;22.40
22923;DHT22;11627;51.322;22.816;2022-11-04T04:28:45;5.90;22.40
22923;DHT22;11627;51.322;22.816;2022-11-04T04:31:14;6.00;20.40
22923;DHT22;11627;51.322;22.816;2022-11-04T04:34:04;5.90;22.10
22923;DHT22;11627;51.322;22.816;2022-11-04T04:36:32;6.00;19.10
22923;DHT22;11627;51.322;22.816;2022-11-04T04:39:06;5.90;21.00
22923;DHT22;11627;51.322;22.816;2022-11-04T04:41:53;5.90;22.30
22923;DHT22;11627;51.322;22.816;2022-11-04T04:44:42;5.90;20.60
22923;DHT22;11627;51.322;22.816;2022-11-04T04:50:03;6.00;21.60
22923;DHT22;11627;51.322;22.816;2022-11-04T04:52:33;6.00;22.10
22923;DHT22;11627;51.322;22.816;2022-11-04T04:55:00;6.00;18.60
22923;DHT22;11627;51.322;22.816;2022-11-04T04:57:27;6.00;19.00
22923;DHT22;11627;51.322;22.816;2022-11-04T04:59:53;6.00;20.30
22923;DHT22;11627;51.322;22.816;2022-11-04T05:02:20;6.00;18.60
22923;DHT22;11627;51.322;22.816;2022-11-04T05:04:47;6.10;20.10
22923;DHT22;11627;51.322;22.816;2022-11-04T05:07:13;6.10;16.40
22923;DHT22;11627;51.322;22.816;2022-11-04T05:09:38;6.20;15.80
22923;DHT22;11627;51.322;22.816;2022-11-04T05:12:05;6.30;11.40
22923;DHT22;11627;51.322;22.816;2022-11-04T05:14:32;6.30;9.80
22923;DHT22;11627;51.322;22.816;2022-11-04T05:16:58;6.30;8.90
22923;DHT22;11627;51.322;22.816;2022-11-04T05:19:23;6.30;8.20
22923;DHT22;11627;51.322;22.816;2022-11-04T05:21:50;6.30;6.80
22923;DHT22;11627;51.322;22.816;2022-11-04T05:24:17;6.40;6.60
22923;DHT22;11627;51.322;22.816;2022-11-04T05:26:42;6.40;8.10
22923;DHT22;11627;51.322;22.816;2022-11-04T05:29:09;6.40;8.80
22923;DHT22;11627;51.322;22.816;2022-11-04T05:31:38;6.30;14.80
22923;DHT22;11627;51.322;22.816;2022-11-04T05:34:04;6.30;16.00
22923;DHT22;11627;51.322;22.816;2022-11-04T05:36:30;6.40;15.70
22923;DHT22;11627;51.322;22.816;2022-11-04T05:38:58;6.40;13.80
22923;DHT22;11627;51.322;22.816;2022-11-04T05:41:25;6.40;14.20
22923;DHT22;11627;51.322;22.816;2022-11-04T05:44:02;6.50;15.50
22923;DHT22;11627;51.322;22.816;2022-11-04T05:46:28;6.50;13.40
22923;DHT22;11627;51.322;22.816;2022-11-04T05:48:55;6.60;13.40
22923;DHT22;11627;51.322;22.816;2022-11-04T05:51:24;6.60;12.20
22923;DHT22;11627;51.322;22.816;2022-11-04T05:53:51;6.60;11.40
22923;DHT22;11627;51.322;22.816;2022-11-04T05:56:18;6.60;8.30
22923;DHT22;11627;51.322;22.816;2022-11-04T05:58:43;6.60;10.70
22923;DHT22;11627;51.322;22.816;2022-11-04T06:01:32;6.60;12.20
22923;DHT22;11627;51.322;22.816;2022-11-04T06:04:00;6.60;11.70
22923;DHT22;11627;51.322;22.816;2022-11-04T06:06:30;6.60;13.00
22923;DHT22;11627;51.322;22.816;2022-11-04T06:08:57;6.60;12.70
22923;DHT22;11627;51.322;22.816;2022-11-04T06:11:25;6.60;13.90
22923;DHT22;11627;51.322;22.816;2022-11-04T06:13:53;6.60;14.70
22923;DHT22;11627;51.322;22.816;2022-11-04T06:16:21;6.60;16.90
22923;DHT22;11627;51.322;22.816;2022-11-04T06:18:48;6.60;16.50
22923;DHT22;11627;51.322;22.816;2022-11-04T06:21:32;6.70;15.90
22923;DHT22;11627;51.322;22.816;2022-11-04T06:23:59;6.70;14.10
22923;DHT22;11627;51.322;22.816;2022-11-04T06:26:27;6.60;14.40
22923;DHT22;11627;51.322;22.816;2022-11-04T06:28:52;6.70;16.10
22923;DHT22;11627;51.322;22.816;2022-11-04T06:31:19;6.70;16.80
22923;DHT22;11627;51.322;22.816;2022-11-04T06:33:46;6.70;17.30
22923;DHT22;11627;51.322;22.816;2022-11-04T06:36:15;6.80;15.10
22923;DHT22;11627;51.322;22.816;2022-11-04T06:38:42;6.90;11.10
22923;DHT22;11627;51.322;22.816;2022-11-04T06:41:14;6.90;9.70
22923;DHT22;11627;51.322;22.816;2022-11-04T06:43:41;7.00;8.60
22923;DHT22;11627;51.322;22.816;2022-11-04T06:46:40;6.90;9.70
22923;DHT22;11627;51.322;22.816;2022-11-04T06:49:19;7.00;11.00
22923;DHT22;11627;51.322;22.816;2022-11-04T06:51:46;7.00;9.50
22923;DHT22;11627;51.322;22.816;2022-11-04T06:54:17;7.00;10.20
22923;DHT22;11627;51.322;22.816;2022-11-04T06:56:44;6.90;10.50
22923;DHT22;11627;51.322;22.816;2022-11-04T06:59:16;7.00;10.90
22923;DHT22;11627;51.322;22.816;2022-11-04T07:01:43;7.00;9.50
22923;DHT22;11627;51.322;22.816;2022-11-04T07:04:10;7.00;9.60
22923;DHT22;11627;51.322;22.816;2022-11-04T07:06:36;7.10;8.80
22923;DHT22;11627;51.322;22.816;2022-11-04T07:09:03;7.10;8.80
22923;DHT22;11627;51.322;22.816;2022-11-04T07:11:31;7.10;8.70
22923;DHT22;11627;51.322;22.816;2022-11-04T07:13:56;7.20;10.80
22923;DHT22;11627;51.322;22.816;2022-11-04T07:16:24;7.10;11.10
22923;DHT22;11627;51.322;22.816;2022-11-04T07:18:53;7.10;13.00
22923;DHT22;11627;51.322;22.816;2022-11-04T07:21:19;7.20;15.70
22923;DHT22;11627;51.322;22.816;2022-11-04T07:23:44;7.20;16.90
22923;DHT22;11627;51.322;22.816;2022-11-04T07:26:10;7.20;18.20
22923;DHT22;11627;51.322;22.816;2022-11-04T07:28:36;7.20;20.80
22923;DHT22;11627;51.322;22.816;2022-11-04T07:31:04;7.20;20.30
22923;DHT22;11627;51.322;22.816;2022-11-04T07:33:31;7.30;18.80
22923;DHT22;11627;51.322;22.816;2022-11-04T07:35:58;7.30;18.30
22923;DHT22;11627;51.322;22.816;2022-11-04T07:38:28;7.40;18.10
22923;DHT22;11627;51.322;22.816;2022-11-04T07:40:53;7.40;17.70
22923;DHT22;11627;51.322;22.816;2022-11-04T07:43:20;7.50;17.70
22923;DHT22;11627;51.322;22.816;2022-11-04T07:45:46;7.50;17.60
22923;DHT22;11627;51.322;22.816;2022-11-04T07:48:11;7.50;16.90
22923;DHT22;11627;51.322;22.816;2022-11-04T07:50:38;7.50;18.30
22923;DHT22;11627;51.322;22.816;2022-11-04T07:53:04;7.60;17.90
22923;DHT22;11627;51.322;22.816;2022-11-04T07:55:30;7.70;17.20
22923;DHT22;11627;51.322;22.816;2022-11-04T07:57:57;7.60;18.20
22923;DHT22;11627;51.322;22.816;2022-11-04T08:00:22;7.70;18.50
22923;DHT22;11627;51.322;22.816;2022-11-04T08:02:48;7.60;18.60
22923;DHT22;11627;51.322;22.816;2022-11-04T08:05:15;7.70;19.20
22923;DHT22;11627;51.322;22.816;2022-11-04T08:07:41;7.70;20.50
22923;DHT22;11627;51.322;22.816;2022-11-04T08:10:07;7.80;19.00
22923;DHT22;11627;51.322;22.816;2022-11-04T08:12:34;7.80;17.60
22923;DHT22;11627;51.322;22.816;2022-11-04T08:14:59;7.70;16.80
22923;DHT22;11627;51.322;22.816;2022-11-04T08:17:26;7.80;17.10
22923;DHT22;11627;51.322;22.816;2022-11-04T08:19:52;7.80;17.90
22923;DHT22;11627;51.322;22.816;2022-11-04T08:22:17;7.80;18.50
22923;DHT22;11627;51.322;22.816;2022-11-04T08:24:43;7.90;18.60
22923;DHT22;11627;51.322;22.816;2022-11-04T08:27:13;7.90;17.80
22923;DHT22;11627;51.322;22.816;2022-11-04T08:29:39;8.00;17.70
22923;DHT22;11627;51.322;22.816;2022-11-04T08:32:06;9.30;18.60
22923;DHT22;11627;51.322;22.816;2022-11-04T08:34:33;8.20;18.80
22923;DHT22;11627;51.322;22.816;2022-11-04T08:37:00;8.20;19.00
22923;DHT22;11627;51.322;22.816;2022-11-04T08:39:27;8.20;20.10
22923;DHT22;11627;51.322;22.816;2022-11-04T08:41:55;8.30;20.30
22923;DHT22;11627;51.322;22.816;2022-11-04T08:44:22;8.30;20.10
22923;DHT22;11627;51.322;22.816;2022-11-04T08:46:49;8.30;18.10
22923;DHT22;11627;51.322;22.816;2022-11-04T08:49:16;8.50;16.30
22923;DHT22;11627;51.322;22.816;2022-11-04T08:51:44;8.50;14.30
22923;DHT22;11627;51.322;22.816;2022-11-04T08:54:13;8.50;15.50
22923;DHT22;11627;51.322;22.816;2022-11-04T08:56:41;8.60;15.40
22923;DHT22;11627;51.322;22.816;2022-11-04T08:59:06;8.60;14.10
22923;DHT22;11627;51.322;22.816;2022-11-04T09:01:35;8.60;11.30
22923;DHT22;11627;51.322;22.816;2022-11-04T09:04:03;8.60;10.30
22923;DHT22;11627;51.322;22.816;2022-11-04T09:06:33;8.60;8.40
22923;DHT22;11627;51.322;22.816;2022-11-04T09:08:59;8.70;3.20
22923;DHT22;11627;51.322;22.816;2022-11-04T09:11:32;8.70;1.20
22923;DHT22;11627;51.322;22.816;2022-11-04T09:14:00;8.70;1.00
22923;DHT22;11627;51.322;22.816;2022-11-04T09:16:29;8.70;1.00
22923;DHT22;11627;51.322;22.816;2022-11-04T09:18:57;8.70;1.20
22923;DHT22;11627;51.322;22.816;2022-11-04T09:21:25;8.80;1.60
22923;DHT22;11627;51.322;22.816;2022-11-04T09:23:54;8.80;1.00
22923;DHT22;11627;51.322;22.816;2022-11-04T09:26:23;8.90;1.00
22923;DHT22;11627;51.322;22.816;2022-11-04T09:28:54;8.90;1.00
22923;DHT22;11627;51.322;22.816;2022-11-04T09:31:21;9.00;1.00
22923;DHT22;11627;51.322;22.816;2022-11-04T09:33:49;9.00;1.00
22923;DHT22;11627;51.322;22.816;2022-11-04T09:36:16;9.00;1.00
22923;DHT22;11627;51.322;22.816;2022-11-04T09:38:43;9.00;1.00
22923;DHT22;11627;51.322;22.816;2022-11-04T09:41:34;9.80;1.00
22923;DHT22;11627;51.322;22.816;2022-11-04T09:44:25;9.10;1.00
22923;DHT22;11627;51.322;22.816;2022-11-04T09:46:57;9.20;1.00
22923;DHT22;11627;51.322;22.816;2022-11-04T09:49:29;9.40;1.00
22923;DHT22;11627;51.322;22.816;2022-11-04T09:51:58;9.40;1.00
22923;DHT22;11627;51.322;22.816;2022-11-04T09:55:12;9.30;1.00
22923;DHT22;11627;51.322;22.816;2022-11-04T09:57:41;9.40;1.00
22923;DHT22;11627;51.322;22.816;2022-11-04T10:00:14;9.40;1.00
22923;DHT22;11627;51.322;22.816;2022-11-04T10:22:29;10.00;1.00
22923;DHT22;11627;51.322;22.816;2022-11-04T10:25:14;10.00;1.00
22923;DHT22;11627;51.322;22.816;2022-11-04T10:27:44;10.00;1.00
22923;DHT22;11627;51.322;22.816;2022-11-04T10:30:20;10.10;1.00
22923;DHT22;11627;51.322;22.816;2022-11-04T10:33:09;10.20;1.00
22923;DHT22;11627;51.322;22.816;2022-11-04T10:35:41;10.20;1.00
22923;DHT22;11627;51.322;22.816;2022-11-04T10:38:32;10.20;1.00
22923;DHT22;11627;51.322;22.816;2022-11-04T10:41:02;10.20;1.00
22923;DHT22;11627;51.322;22.816;2022-11-04T10:43:38;10.20;1.00
22923;DHT22;11627;51.322;22.816;2022-11-04T10:46:11;10.20;1.00
22923;DHT22;11627;51.322;22.816;2022-11-04T10:51:23;10.40;1.00
22923;DHT22;11627;51.322;22.816;2022-11-04T10:53:55;10.50;1.00
22923;DHT22;11627;51.322;22.816;2022-11-04T10:56:49;10.50;1.00
22923;DHT22;11627;51.322;22.816;2022-11-04T10:59:24;10.60;1.00
22923;DHT22;11627;51.322;22.816;2022-11-04T11:01:54;10.60;1.00
22923;DHT22;11627;51.322;22.816;2022-11-04T11:04:33;10.70;1.00
22923;DHT22;11627;51.322;22.816;2022-11-04T11:07:08;10.80;1.00
22923;DHT22;11627;51.322;22.816;2022-11-04T11:09:52;10.80;1.00
22923;DHT22;11627;51.322;22.816;2022-11-04T11:12:24;10.90;1.00
22923;DHT22;11627;51.322;22.816;2022-11-04T11:20:40;11.00;1.00
22923;DHT22;11627;51.322;22.816;2022-11-04T11:25:53;10.90;1.00
22923;DHT22;11627;51.322;22.816;2022-11-04T11:28:23;10.80;1.00
22923;DHT22;11627;51.322;22.816;2022-11-04T11:31:01;10.80;1.00
22923;DHT22;11627;51.322;22.816;2022-11-04T11:33:54;10.80;1.00
22923;DHT22;11627;51.322;22.816;2022-11-04T11:36:30;10.80;1.00
22923;DHT22;11627;51.322;22.816;2022-11-04T11:39:05;11.00;1.00
22923;DHT22;11627;51.322;22.816;2022-11-04T11:42:04;11.00;1.00
22923;DHT22;11627;51.322;22.816;2022-11-04T11:44:35;11.10;1.00
22923;DHT22;11627;51.322;22.816;2022-11-04T11:47:08;11.00;1.00
22923;DHT22;11627;51.322;22.816;2022-11-04T11:49:42;11.10;1.00
22923;DHT22;11627;51.322;22.816;2022-11-04T11:52:34;11.10;1.00
22923;DHT22;11627;51.322;22.816;2022-11-04T11:55:25;11.10;1.00
22923;DHT22;11627;51.322;22.816;2022-11-04T12:01:27;11.10;1.00
22923;DHT22;11627;51.322;22.816;2022-11-04T12:03:54;11.10;1.00
22923;DHT22;11627;51.322;22.816;2022-11-04T12:09:29;11.00;1.00
22923;DHT22;11627;51.322;22.816;2022-11-04T12:15:03;11.00;1.00
22923;DHT22;11627;51.322;22.816;2022-11-04T12:18:01;11.00;1.00
22923;DHT22;11627;51.322;22.816;2022-11-04T12:23:27;11.00;1.00
22923;DHT22;11627;51.322;22.816;2022-11-04T12:45:51;10.80;1.00
22923;DHT22;11627;51.322;22.816;2022-11-04T12:51:36;10.90;1.00
22923;DHT22;11627;51.322;22.816;2022-11-04T12:54:48;10.90;1.00
22923;DHT22;11627;51.322;22.816;2022-11-04T13:00:12;10.90;1.00
22923;DHT22;11627;51.322;22.816;2022-11-04T13:05:43;10.90;1.00
22923;DHT22;11627;51.322;22.816;2022-11-04T13:08:23;11.00;1.00
22923;DHT22;11627;51.322;22.816;2022-11-04T13:13:37;11.00;1.00
22923;DHT22;11627;51.322;22.816;2022-11-04T13:16:07;10.90;1.00
22923;DHT22;11627;51.322;22.816;2022-11-04T13:18:38;11.00;1.00
22923;DHT22;11627;51.322;22.816;2022-11-04T13:21:12;11.10;1.00
22923;DHT22;11627;51.322;22.816;2022-11-04T13:23:56;11.30;1.00
22923;DHT22;11627;51.322;22.816;2022-11-04T13:26:23;11.20;1.00
22923;DHT22;11627;51.322;22.816;2022-11-04T13:28:58;11.30;1.00
22923;DHT22;11627;51.322;22.816;2022-11-04T13:31:41;11.40;1.00
22923;DHT22;11627;51.322;22.816;2022-11-04T13:39:41;11.40;1.00
22923;DHT22;11627;51.322;22.816;2022-11-04T13:45:09;11.50;1.00
22923;DHT22;11627;51.322;22.816;2022-11-04T13:47:47;11.40;1.00
22923;DHT22;11627;51.322;22.816;2022-11-04T13:50:32;11.50;1.00
22923;DHT22;11627;51.322;22.816;2022-11-04T13:53:00;11.60;1.00
22923;DHT22;11627;51.322;22.816;2022-11-04T13:55:26;11.60;1.00
22923;DHT22;11627;51.322;22.816;2022-11-04T13:58:01;11.60;1.00
22923;DHT22;11627;51.322;22.816;2022-11-04T14:00:29;11.60;1.00
22923;DHT22;11627;51.322;22.816;2022-11-04T14:02:59;11.50;1.00
22923;DHT22;11627;51.322;22.816;2022-11-04T14:18:49;11.30;1.00
22923;DHT22;11627;51.322;22.816;2022-11-04T14:21:16;11.20;1.00
22923;DHT22;11627;51.322;22.816;2022-11-04T14:23:45;11.10;1.00
22923;DHT22;11627;51.322;22.816;2022-11-04T14:26:13;11.20;1.00
22923;DHT22;11627;51.322;22.816;2022-11-04T14:28:45;11.10;1.00
22923;DHT22;11627;51.322;22.816;2022-11-04T14:31:13;11.20;1.00
22923;DHT22;11627;51.322;22.816;2022-11-04T14:36:27;11.10;1.00
22923;DHT22;11627;51.322;22.816;2022-11-04T14:39:05;11.00;1.00
22923;DHT22;11627;51.322;22.816;2022-11-04T14:46:47;10.80;1.00
22923;DHT22;11627;51.322;22.816;2022-11-04T14:51:55;10.70;1.00
22923;DHT22;11627;51.322;22.816;2022-11-04T14:54:23;10.60;1.00
22923;DHT22;11627;51.322;22.816;2022-11-04T14:56:51;10.80;1.00
22923;DHT22;11627;51.322;22.816;2022-11-04T14:59:25;10.50;1.00
22923;DHT22;11627;51.322;22.816;2022-11-04T15:01:52;10.50;1.00
22923;DHT22;11627;51.322;22.816;2022-11-04T15:04:28;10.50;1.00
22923;DHT22;11627;51.322;22.816;2022-11-04T15:07:03;10.50;1.00
22923;DHT22;11627;51.322;22.816;2022-11-04T15:09:32;10.40;1.00
22923;DHT22;11627;51.322;22.816;2022-11-04T15:14:52;10.40;1.00
22923;DHT22;11627;51.322;22.816;2022-11-04T15:17:19;10.60;1.00
22923;DHT22;11627;51.322;22.816;2022-11-04T15:19:49;10.40;1.00
22923;DHT22;11627;51.322;22.816;2022-11-04T15:22:15;10.30;1.00
22923;DHT22;11627;51.322;22.816;2022-11-04T15:24:42;10.40;1.00
22923;DHT22;11627;51.322;22.816;2022-11-04T15:27:14;10.30;1.00
22923;DHT22;11627;51.322;22.816;2022-11-04T15:29:59;10.20;1.00
22923;DHT22;11627;51.322;22.816;2022-11-04T15:32:27;10.20;1.00
22923;DHT22;11627;51.322;22.816;2022-11-04T15:34:53;10.20;1.00
22923;DHT22;11627;51.322;22.816;2022-11-04T15:37:20;10.20;1.00
22923;DHT22;11627;51.322;22.816;2022-11-04T15:39:50;10.30;1.00
22923;DHT22;11627;51.322;22.816;2022-11-04T15:42:23;10.20;1.00
22923;DHT22;11627;51.322;22.816;2022-11-04T15:45:38;10.20;1.00
22923;DHT22;11627;51.322;22.816;2022-11-04T15:53:32;10.10;1.00
22923;DHT22;11627;51.322;22.816;2022-11-04T15:55:59;10.10;1.00
22923;DHT22;11627;51.322;22.816;2022-11-04T15:58:25;10.00;1.00
22923;DHT22;11627;51.322;22.816;2022-11-04T16:00:53;10.00;1.00
22923;DHT22;11627;51.322;22.816;2022-11-04T16:03:20;9.90;1.00
22923;DHT22;11627;51.322;22.816;2022-11-04T16:06:00;9.90;1.00
22923;DHT22;11627;51.322;22.816;2022-11-04T16:08:29;9.90;1.00
22923;DHT22;11627;51.322;22.816;2022-11-04T16:11:27;9.90;1.00
22923;DHT22;11627;51.322;22.816;2022-11-04T16:13:53;9.90;1.00
22923;DHT22;11627;51.322;22.816;2022-11-04T16:16:38;9.90;1.00
22923;DHT22;11627;51.322;22.816;2022-11-04T16:19:03;9.80;1.00
22923;DHT22;11627;51.322;22.816;2022-11-04T16:21:32;9.90;1.00
22923;DHT22;11627;51.322;22.816;2022-11-04T16:24:21;9.80;1.00
22923;DHT22;11627;51.322;22.816;2022-11-04T16:26:47;9.80;1.00
22923;DHT22;11627;51.322;22.816;2022-11-04T16:29:22;9.70;1.00
22923;DHT22;11627;51.322;22.816;2022-11-04T16:32:14;9.80;1.00
22923;DHT22;11627;51.322;22.816;2022-11-04T16:34:41;9.70;1.00
22923;DHT22;11627;51.322;22.816;2022-11-04T16:37:07;9.70;1.00
22923;DHT22;11627;51.322;22.816;2022-11-04T16:39:33;9.70;1.00
22923;DHT22;11627;51.322;22.816;2022-11-04T16:41:58;9.60;1.00
22923;DHT22;11627;51.322;22.816;2022-11-04T16:44:24;9.70;1.00
22923;DHT22;11627;51.322;22.816;2022-11-04T16:46:51;9.70;1.00
22923;DHT22;11627;51.322;22.816;2022-11-04T16:49:19;9.70;1.00
22923;DHT22;11627;51.322;22.816;2022-11-04T16:51:47;9.70;1.00
22923;DHT22;11627;51.322;22.816;2022-11-04T16:54:13;9.70;1.00
22923;DHT22;11627;51.322;22.816;2022-11-04T16:56:39;9.60;1.00
22923;DHT22;11627;51.322;22.816;2022-11-04T16:59:04;9.60;1.00
22923;DHT22;11627;51.322;22.816;2022-11-04T17:01:30;9.60;1.00
22923;DHT22;11627;51.322;22.816;2022-11-04T17:03:56;9.80;1.00
22923;DHT22;11627;51.322;22.816;2022-11-04T17:06:22;9.50;1.00
22923;DHT22;11627;51.322;22.816;2022-11-04T17:08:47;9.40;1.00
22923;DHT22;11627;51.322;22.816;2022-11-04T17:11:13;9.30;1.00
22923;DHT22;11627;51.322;22.816;2022-11-04T17:13:38;9.30;1.00
22923;DHT22;11627;51.322;22.816;2022-11-04T17:16:06;9.30;1.00
22923;DHT22;11627;51.322;22.816;2022-11-04T17:18:33;9.30;1.00
22923;DHT22;11627;51.322;22.816;2022-11-04T17:21:01;9.20;1.00
22923;DHT22;11627;51.322;22.816;2022-11-04T17:23:29;9.20;1.00
22923;DHT22;11627;51.322;22.816;2022-11-04T17:25:55;9.30;1.00
22923;DHT22;11627;51.322;22.816;2022-11-04T17:28:20;9.30;1.00
22923;DHT22;11627;51.322;22.816;2022-11-04T17:30:46;9.20;1.00
22923;DHT22;11627;51.322;22.816;2022-11-04T17:33:16;9.30;1.00
22923;DHT22;11627;51.322;22.816;2022-11-04T17:35:44;9.30;1.00
22923;DHT22;11627;51.322;22.816;2022-11-04T17:38:12;9.30;1.00
22923;DHT22;11627;51.322;22.816;2022-11-04T17:40:38;9.30;1.00
22923;DHT22;11627;51.322;22.816;2022-11-04T17:43:22;9.20;1.00
22923;DHT22;11627;51.322;22.816;2022-11-04T17:46:06;9.30;1.00
22923;DHT22;11627;51.322;22.816;2022-11-04T17:48:50;9.30;1.00
22923;DHT22;11627;51.322;22.816;2022-11-04T17:51:16;9.30;1.00
22923;DHT22;11627;51.322;22.816;2022-11-04T17:53:42;9.30;1.00
22923;DHT22;11627;51.322;22.816;2022-11-04T17:56:18;9.40;1.00
22923;DHT22;11627;51.322;22.816;2022-11-04T17:58:44;9.30;1.00
22923;DHT22;11627;51.322;22.816;2022-11-04T18:01:11;9.30;1.00
22923;DHT22;11627;51.322;22.816;2022-11-04T18:03:39;9.20;1.00
22923;DHT22;11627;51.322;22.816;2022-11-04T18:06:05;9.20;1.00
22923;DHT22;11627;51.322;22.816;2022-11-04T18:08:31;9.30;1.00
22923;DHT22;11627;51.322;22.816;2022-11-04T18:10:58;9.20;1.00
22923;DHT22;11627;51.322;22.816;2022-11-04T18:13:23;9.30;1.00
22923;DHT22;11627;51.322;22.816;2022-11-04T18:15:49;9.30;1.00
22923;DHT22;11627;51.322;22.816;2022-11-04T18:18:15;9.30;1.00
22923;DHT22;11627;51.322;22.816;2022-11-04T18:20:40;9.30;1.00
22923;DHT22;11627;51.322;22.816;2022-11-04T18:23:06;9.30;1.00
22923;DHT22;11627;51.322;22.816;2022-11-04T18:25:31;9.30;1.00
22923;DHT22;11627;51.322;22.816;2022-11-04T18:28:00;9.30;1.00
22923;DHT22;11627;51.322;22.816;2022-11-04T18:30:26;9.30;1.00